createdAt,value
2022-08-05T00:00:05.556Z,15.42
2022-08-05T00:01:20.574Z,15.43
2022-08-05T00:02:07.584Z,15.44
2022-08-05T00:03:04.642Z,15.45
2022-08-05T00:04:05.220Z,15.46
2022-08-05T00:05:05.832Z,15.48
2022-08-05T00:06:23.349Z,15.50
2022-08-05T00:07:26.987Z,15.51
2022-08-05T00:08:04.720Z,15.54
2022-08-05T00:09:05.418Z,15.55
2022-08-05T00:10:05.704Z,15.56
2022-08-05T00:11:20.265Z,15.58
2022-08-05T00:13:04.401Z,15.60
2022-08-05T00:14:11.958Z,15.59
2022-08-05T00:16:04.905Z,15.60
2022-08-05T00:18:04.508Z,15.61
2022-08-05T00:19:05.916Z,15.62
2022-08-05T00:20:05.472Z,15.64
2022-08-05T00:21:04.502Z,15.66
2022-08-05T00:22:05.015Z,15.67
2022-08-05T00:23:12.763Z,15.68
2022-08-05T00:24:10.604Z,15.70
2022-08-05T00:25:08.402Z,15.71
2022-08-05T00:26:04.586Z,15.72
2022-08-05T00:27:10.432Z,15.73
2022-08-05T00:30:05.692Z,15.72
2022-08-05T00:34:53.627Z,15.71
2022-08-05T00:38:04.450Z,15.69
2022-08-05T00:40:05.052Z,15.68
2022-08-05T00:42:04.660Z,15.67
2022-08-05T00:44:04.767Z,15.66
2022-08-05T00:45:08.486Z,15.65
2022-08-05T00:46:04.513Z,15.64
2022-08-05T00:47:05.816Z,15.63
2022-08-05T00:48:05.221Z,15.62
2022-08-05T00:50:04.555Z,15.63
2022-08-05T00:51:08.814Z,15.64
2022-08-05T00:52:04.562Z,15.66
2022-08-05T00:53:09.860Z,15.68
2022-08-05T00:54:04.631Z,15.71
2022-08-05T00:55:04.950Z,15.73
2022-08-05T00:56:05.591Z,15.76
2022-08-05T00:57:04.841Z,15.78
2022-08-05T00:58:04.795Z,15.79
2022-08-05T00:59:06.875Z,15.80
2022-08-05T01:00:07.130Z,15.82
2022-08-05T01:02:04.976Z,15.83
2022-08-05T01:03:07.946Z,15.85
2022-08-05T01:04:13.797Z,15.86
2022-08-05T01:05:05.192Z,15.87
2022-08-05T01:06:05.454Z,15.88
2022-08-05T01:07:05.255Z,15.89
2022-08-05T01:09:06.278Z,15.90
2022-08-05T01:13:22.349Z,15.89
2022-08-05T01:14:15.582Z,15.90
2022-08-05T01:15:35.064Z,15.91
2022-08-05T01:18:10.233Z,15.90
2022-08-05T01:19:20.311Z,15.91
2022-08-05T01:21:09.382Z,15.92
2022-08-05T01:23:23.717Z,15.93
2022-08-05T01:28:21.570Z,15.94
2022-08-05T01:31:15.787Z,15.95
2022-08-05T01:32:12.437Z,15.96
2022-08-05T01:33:08.683Z,15.97
2022-08-05T01:34:11.222Z,15.98
2022-08-05T01:35:10.954Z,15.99
2022-08-05T01:36:12.653Z,16.00
2022-08-05T01:37:17.995Z,16.02
2022-08-05T01:39:04.941Z,16.03
2022-08-05T01:40:05.939Z,16.04
2022-08-05T01:41:07.035Z,16.06
2022-08-05T01:42:07.573Z,16.10
2022-08-05T01:43:04.826Z,16.12
2022-08-05T01:44:09.731Z,16.16
2022-08-05T01:45:08.217Z,16.20
2022-08-05T01:46:07.160Z,16.28
2022-08-05T01:47:06.790Z,16.38
2022-08-05T01:48:10.457Z,16.47
2022-08-05T01:49:23.426Z,16.59
2022-08-05T01:50:07.411Z,16.71
2022-08-05T01:51:11.965Z,16.84
2022-08-05T01:52:17.412Z,16.99
2022-08-05T01:53:11.010Z,17.12
2022-08-05T01:54:08.166Z,17.23
2022-08-05T01:55:09.406Z,17.31
2022-08-05T01:56:05.317Z,17.38
2022-08-05T01:58:11.440Z,17.42
2022-08-05T01:58:29.945Z,17.46
2022-08-05T01:59:10.072Z,17.50
2022-08-05T02:00:11.638Z,17.51
2022-08-05T02:03:23.984Z,17.49
2022-08-05T02:04:05.859Z,17.46
2022-08-05T02:05:11.762Z,17.43
2022-08-05T02:06:33.512Z,17.40
2022-08-05T02:07:06.155Z,17.37
2022-08-05T02:08:04.985Z,17.34
2022-08-05T02:09:05.791Z,17.31
2022-08-05T02:10:05.925Z,17.30
2022-08-05T02:11:11.782Z,17.29
2022-08-05T02:12:10.478Z,17.28
2022-08-05T02:13:17.113Z,17.27
2022-08-05T02:14:12.989Z,17.25
2022-08-05T02:15:18.447Z,17.24
2022-08-05T02:16:16.408Z,17.22
2022-08-05T02:17:16.782Z,17.18
2022-08-05T02:18:30.645Z,17.13
2022-08-05T02:19:14.443Z,17.12
2022-08-05T02:20:10.924Z,17.10
2022-08-05T02:21:14.763Z,17.14
2022-08-05T02:22:17.510Z,17.21
2022-08-05T02:23:09.628Z,17.30
2022-08-05T02:24:08.809Z,17.39
2022-08-05T02:25:09.413Z,17.49
2022-08-05T02:26:08.086Z,17.57
2022-08-05T02:27:09.870Z,17.63
2022-08-05T02:28:08.845Z,17.65
2022-08-05T02:29:04.824Z,17.66
2022-08-05T02:30:04.961Z,17.71
2022-08-05T02:31:14.559Z,17.74
2022-08-05T02:32:06.927Z,17.82
2022-08-05T02:33:08.285Z,17.90
2022-08-05T02:34:09.906Z,17.99
2022-08-05T02:35:14.171Z,18.05
2022-08-05T02:36:06.987Z,18.12
2022-08-05T02:37:09.204Z,18.18
2022-08-05T02:38:04.846Z,18.22
2022-08-05T02:40:05.228Z,18.23
2022-08-05T02:41:17.277Z,18.21
2022-08-05T02:42:05.790Z,18.17
2022-08-05T02:43:07.156Z,18.14
2022-08-05T02:44:11.270Z,18.11
2022-08-05T02:45:05.745Z,18.08
2022-08-05T02:46:04.657Z,18.04
2022-08-05T02:47:06.483Z,18.02
2022-08-05T02:48:11.456Z,17.98
2022-08-05T02:49:05.020Z,17.97
2022-08-05T02:50:07.313Z,17.98
2022-08-05T02:51:05.293Z,17.99
2022-08-05T02:52:08.601Z,17.98
2022-08-05T02:53:05.120Z,17.94
2022-08-05T02:54:05.722Z,17.88
2022-08-05T02:55:06.581Z,17.80
2022-08-05T02:56:05.111Z,17.71
2022-08-05T02:57:10.117Z,17.57
2022-08-05T02:58:11.080Z,17.48
2022-08-05T02:59:06.043Z,17.38
2022-08-05T03:00:04.968Z,17.30
2022-08-05T03:01:05.285Z,17.23
2022-08-05T03:02:05.765Z,17.19
2022-08-05T03:03:07.577Z,17.14
2022-08-05T03:04:14.403Z,17.11
2022-08-05T03:05:07.078Z,17.10
2022-08-05T03:06:54.423Z,17.09
2022-08-05T03:07:05.047Z,17.07
2022-08-05T03:08:08.609Z,17.06
2022-08-05T03:09:04.884Z,17.08
2022-08-05T03:10:04.679Z,17.11
2022-08-05T03:12:05.146Z,17.10
2022-08-05T03:13:16.563Z,17.08
2022-08-05T03:14:04.282Z,17.06
2022-08-05T03:16:04.275Z,17.07
2022-08-05T03:17:08.964Z,17.09
2022-08-05T03:19:12.831Z,17.13
2022-08-05T03:20:06.396Z,17.14
2022-08-05T03:21:04.265Z,17.18
2022-08-05T03:22:05.116Z,17.21
2022-08-05T03:23:07.892Z,17.25
2022-08-05T03:24:05.281Z,17.27
2022-08-05T03:25:18.802Z,17.25
2022-08-05T03:26:30.913Z,17.24
2022-08-05T03:27:06.655Z,17.23
2022-08-05T03:28:06.334Z,17.21
2022-08-05T03:29:04.826Z,17.19
2022-08-05T03:30:08.143Z,17.18
2022-08-05T03:31:05.217Z,17.19
2022-08-05T03:33:07.516Z,17.18
2022-08-05T03:34:06.069Z,17.14
2022-08-05T03:35:05.543Z,17.11
2022-08-05T03:36:06.549Z,17.05
2022-08-05T03:37:06.146Z,17.01
2022-08-05T03:38:04.242Z,16.96
2022-08-05T03:39:08.543Z,16.90
2022-08-05T03:40:08.766Z,16.84
2022-08-05T03:41:08.298Z,16.78
2022-08-05T03:42:04.841Z,16.73
2022-08-05T03:43:15.940Z,16.67
2022-08-05T03:44:11.825Z,16.57
2022-08-05T03:45:22.041Z,16.52
2022-08-05T03:46:04.718Z,16.50
2022-08-05T03:47:04.230Z,16.45
2022-08-05T03:48:04.594Z,16.40
2022-08-05T03:49:04.495Z,16.37
2022-08-05T03:50:04.569Z,16.32
2022-08-05T03:52:37.633Z,16.28
2022-08-05T03:52:38.251Z,16.25
2022-08-05T03:55:50.630Z,16.22
2022-08-05T03:55:52.077Z,16.19
2022-08-05T03:56:09.579Z,16.17
2022-08-05T03:56:17.301Z,16.16
2022-08-05T03:57:16.762Z,16.14
2022-08-05T03:58:09.286Z,16.13
2022-08-05T03:59:11.310Z,16.12
2022-08-05T04:00:08.644Z,16.11
2022-08-05T04:01:08.020Z,16.10
2022-08-05T04:04:10.688Z,16.09
2022-08-05T04:05:06.184Z,16.08
2022-08-05T04:06:06.096Z,16.06
2022-08-05T04:07:05.850Z,16.05
2022-08-05T04:08:14.480Z,16.03
2022-08-05T04:10:04.512Z,16.01
2022-08-05T04:11:08.584Z,15.99
2022-08-05T04:12:04.450Z,15.97
2022-08-05T04:13:04.972Z,15.95
2022-08-05T04:14:05.181Z,15.94
2022-08-05T04:15:04.669Z,15.92
2022-08-05T04:16:05.004Z,15.90
2022-08-05T04:17:04.455Z,15.88
2022-08-05T04:18:07.426Z,15.85
2022-08-05T04:19:10.731Z,15.81
2022-08-05T04:20:05.543Z,15.77
2022-08-05T04:21:05.581Z,15.74
2022-08-05T04:22:09.258Z,15.71
2022-08-05T04:23:04.690Z,15.68
2022-08-05T04:24:08.812Z,15.66
2022-08-05T04:25:04.292Z,15.63
2022-08-05T04:26:04.584Z,15.59
2022-08-05T04:27:04.292Z,15.57
2022-08-05T04:28:11.107Z,15.54
2022-08-05T04:29:07.374Z,15.52
2022-08-05T04:30:04.819Z,15.49
2022-08-05T04:31:08.392Z,15.47
2022-08-05T04:32:04.341Z,15.43
2022-08-05T04:33:04.201Z,15.40
2022-08-05T04:34:33.149Z,15.38
2022-08-05T04:35:04.667Z,15.33
2022-08-05T04:36:10.640Z,15.30
2022-08-05T04:37:04.931Z,15.27
2022-08-05T04:38:06.812Z,15.24
2022-08-05T04:39:04.455Z,15.20
2022-08-05T04:40:04.655Z,15.18
2022-08-05T04:41:04.221Z,15.14
2022-08-05T04:42:04.503Z,15.11
2022-08-05T04:43:04.642Z,15.09
2022-08-05T04:44:09.668Z,15.07
2022-08-05T04:45:05.038Z,15.05
2022-08-05T04:46:05.167Z,15.04
2022-08-05T04:47:08.806Z,15.03
2022-08-05T04:48:16.346Z,15.01
2022-08-05T04:49:04.252Z,14.99
2022-08-05T04:50:11.457Z,14.97
2022-08-05T04:51:11.524Z,14.95
2022-08-05T04:52:04.216Z,14.94
2022-08-05T04:53:04.227Z,14.91
2022-08-05T04:54:04.268Z,14.90
2022-08-05T04:55:14.581Z,14.87
2022-08-05T04:56:33.150Z,14.85
2022-08-05T04:57:04.287Z,14.83
2022-08-05T04:58:07.201Z,14.80
2022-08-05T04:59:22.072Z,14.76
2022-08-05T05:00:05.822Z,14.75
2022-08-05T05:01:04.292Z,14.74
2022-08-05T05:02:07.589Z,14.73
2022-08-05T05:03:05.679Z,14.71
2022-08-05T05:04:04.675Z,14.70
2022-08-05T05:05:16.908Z,14.68
2022-08-05T05:06:40.376Z,14.67
2022-08-05T05:07:04.279Z,14.66
2022-08-05T05:08:14.189Z,14.64
2022-08-05T05:09:05.579Z,14.62
2022-08-05T05:10:06.702Z,14.60
2022-08-05T05:11:04.947Z,14.58
2022-08-05T05:12:04.512Z,14.56
2022-08-05T05:13:04.656Z,14.54
2022-08-05T05:14:04.548Z,14.50
2022-08-05T05:15:06.113Z,14.46
2022-08-05T05:16:06.124Z,14.44
2022-08-05T05:17:07.430Z,14.41
2022-08-05T05:18:05.047Z,14.38
2022-08-05T05:19:18.671Z,14.36
2022-08-05T05:20:05.492Z,14.35
2022-08-05T05:21:05.514Z,14.32
2022-08-05T05:22:22.546Z,14.31
2022-08-05T05:23:08.403Z,14.29
2022-08-05T05:24:09.099Z,14.28
2022-08-05T05:25:16.045Z,14.27
2022-08-05T05:26:05.675Z,14.25
2022-08-05T05:28:04.721Z,14.24
2022-08-05T05:29:14.345Z,14.22
2022-08-05T05:30:05.909Z,14.20
2022-08-05T05:31:05.766Z,14.18
2022-08-05T05:32:04.648Z,14.15
2022-08-05T05:33:16.625Z,14.14
2022-08-05T05:36:04.676Z,14.13
2022-08-05T05:39:04.956Z,14.12
2022-08-05T05:40:04.732Z,14.10
2022-08-05T05:41:05.036Z,14.09
2022-08-05T05:42:04.720Z,14.07
2022-08-05T05:43:04.823Z,14.06
2022-08-05T05:44:04.663Z,14.04
2022-08-05T05:45:04.718Z,14.02
2022-08-05T05:46:05.291Z,13.99
2022-08-05T05:47:13.166Z,13.96
2022-08-05T05:48:08.284Z,13.93
2022-08-05T05:49:06.435Z,13.90
2022-08-05T05:50:04.831Z,13.87
2022-08-05T05:51:15.042Z,13.84
2022-08-05T05:52:05.911Z,13.81
2022-08-05T05:53:20.904Z,13.80
2022-08-05T05:54:04.523Z,13.78
2022-08-05T05:55:13.588Z,13.77
2022-08-05T05:56:04.624Z,13.76
2022-08-05T05:57:04.783Z,13.74
2022-08-05T05:58:04.723Z,13.73
2022-08-05T05:59:07.742Z,13.70
2022-08-05T06:00:05.922Z,13.68
2022-08-05T06:01:12.702Z,13.66
2022-08-05T06:02:04.502Z,13.64
2022-08-05T06:03:39.738Z,13.63
2022-08-05T06:04:04.759Z,13.62
2022-08-05T06:05:04.894Z,13.57
2022-08-05T06:06:06.820Z,13.53
2022-08-05T06:07:04.537Z,13.48
2022-08-05T06:08:04.791Z,13.45
2022-08-05T06:09:06.124Z,13.42
2022-08-05T06:10:10.127Z,13.38
2022-08-05T06:11:04.811Z,13.34
2022-08-05T06:12:05.072Z,13.31
2022-08-05T06:13:05.500Z,13.27
2022-08-05T06:14:04.582Z,13.23
2022-08-05T06:15:06.252Z,13.20
2022-08-05T06:16:30.435Z,13.17
2022-08-05T06:17:31.956Z,13.14
2022-08-05T06:18:04.515Z,13.13
2022-08-05T06:19:05.685Z,13.10
2022-08-05T06:20:05.838Z,13.09
2022-08-05T06:21:04.988Z,13.06
2022-08-05T06:22:06.437Z,13.01
2022-08-05T06:23:04.579Z,12.97
2022-08-05T06:24:05.091Z,12.95
2022-08-05T06:25:59.079Z,12.92
2022-08-05T06:26:13.606Z,12.90
2022-08-05T06:27:04.653Z,12.89
2022-08-05T06:28:11.255Z,12.88
2022-08-05T06:29:25.551Z,12.86
2022-08-05T06:30:17.773Z,12.83
2022-08-05T06:31:11.141Z,12.81
2022-08-05T06:32:04.624Z,12.78
2022-08-05T06:33:04.508Z,12.75
2022-08-05T06:34:07.357Z,12.70
2022-08-05T06:35:05.952Z,12.65
2022-08-05T06:36:09.574Z,12.60
2022-08-05T06:37:04.718Z,12.56
2022-08-05T06:38:08.324Z,12.51
2022-08-05T06:39:04.696Z,12.45
2022-08-05T06:40:04.910Z,12.41
2022-08-05T06:41:05.093Z,12.37
2022-08-05T06:42:04.656Z,12.33
2022-08-05T06:43:04.605Z,12.29
2022-08-05T06:44:04.723Z,12.26
2022-08-05T06:45:08.681Z,12.24
2022-08-05T06:47:04.629Z,12.23
2022-08-05T06:48:35.893Z,12.22
2022-08-05T06:49:07.683Z,12.21
2022-08-05T06:50:05.107Z,12.20
2022-08-05T06:52:04.681Z,12.19
2022-08-05T06:53:19.497Z,12.17
2022-08-05T06:54:05.832Z,12.15
2022-08-05T06:55:04.620Z,12.14
2022-08-05T06:57:56.756Z,12.12
2022-08-05T06:58:19.751Z,12.09
2022-08-05T06:59:09.540Z,12.07
2022-08-05T07:00:05.286Z,12.06
2022-08-05T07:03:04.569Z,12.05
2022-08-05T07:07:07.995Z,12.03
2022-08-05T07:08:04.598Z,12.02
2022-08-05T07:09:05.358Z,12.01
2022-08-05T07:10:04.830Z,12.00
2022-08-05T07:13:13.825Z,12.01
2022-08-05T07:14:15.845Z,12.02
2022-08-05T07:15:13.867Z,12.03
2022-08-05T07:18:02.207Z,12.05
2022-08-05T07:18:08.338Z,12.04
2022-08-05T07:19:05.292Z,12.05
2022-08-05T07:21:06.348Z,12.06
2022-08-05T07:23:04.696Z,12.07
2022-08-05T07:24:04.730Z,12.08
2022-08-05T07:26:05.140Z,12.06
2022-08-05T07:28:09.628Z,12.05
2022-08-05T07:29:05.168Z,12.04
2022-08-05T07:31:04.534Z,12.03
2022-08-05T07:32:04.614Z,12.02
2022-08-05T07:33:09.530Z,12.00
2022-08-05T07:34:05.101Z,11.99
2022-08-05T07:35:56.790Z,11.97
2022-08-05T07:36:21.524Z,11.96
2022-08-05T07:37:04.525Z,11.94
2022-08-05T07:38:04.510Z,11.92
2022-08-05T07:39:07.258Z,11.90
2022-08-05T07:40:31.885Z,11.88
2022-08-05T07:41:35.152Z,11.85
2022-08-05T07:42:13.563Z,11.83
2022-08-05T07:43:14.539Z,11.81
2022-08-05T07:44:14.229Z,11.79
2022-08-05T07:45:09.347Z,11.77
2022-08-05T07:46:04.430Z,11.76
2022-08-05T07:51:04.690Z,11.77
2022-08-05T07:52:04.569Z,11.78
2022-08-05T07:54:04.476Z,11.77
2022-08-05T07:55:04.598Z,11.78
2022-08-05T07:56:39.050Z,11.77
2022-08-05T07:59:04.467Z,11.78
2022-08-05T08:00:06.420Z,11.77
2022-08-05T08:01:06.212Z,11.76
2022-08-05T08:02:04.498Z,11.77
2022-08-05T08:04:04.478Z,11.76
2022-08-05T08:05:04.626Z,11.74
2022-08-05T08:06:04.580Z,11.71
2022-08-05T08:07:07.203Z,11.68
2022-08-05T08:08:04.492Z,11.66
2022-08-05T08:09:04.589Z,11.63
2022-08-05T08:10:07.285Z,11.60
2022-08-05T08:11:04.434Z,11.57
2022-08-05T08:12:11.476Z,11.54
2022-08-05T08:13:05.732Z,11.51
2022-08-05T08:14:04.793Z,11.49
2022-08-05T08:15:09.378Z,11.47
2022-08-05T08:16:50.307Z,11.45
2022-08-05T08:17:04.440Z,11.43
2022-08-05T08:18:09.509Z,11.42
2022-08-05T08:19:05.556Z,11.40
2022-08-05T08:20:44.124Z,11.39
2022-08-05T08:21:09.469Z,11.38
2022-08-05T08:23:04.628Z,11.37
2022-08-05T08:26:04.860Z,11.36
2022-08-05T08:28:05.476Z,11.34
2022-08-05T08:29:45.299Z,11.33
2022-08-05T08:31:05.306Z,11.31
2022-08-05T08:33:13.924Z,11.30
2022-08-05T08:34:04.414Z,11.29
2022-08-05T08:35:04.586Z,11.28
2022-08-05T08:36:29.855Z,11.26
2022-08-05T08:38:04.676Z,11.24
2022-08-05T08:39:04.715Z,11.22
2022-08-05T08:40:05.748Z,11.23
2022-08-05T08:41:08.751Z,11.24
2022-08-05T08:45:21.152Z,11.25
2022-08-05T08:45:25.092Z,11.26
2022-08-05T08:46:05.387Z,11.28
2022-08-05T08:47:46.833Z,11.31
2022-08-05T08:50:04.091Z,11.33
2022-08-05T08:50:22.892Z,11.34
2022-08-05T08:52:13.674Z,11.35
2022-08-05T08:53:11.854Z,11.36
2022-08-05T08:54:05.247Z,11.37
2022-08-05T08:55:13.174Z,11.38
2022-08-05T08:56:06.237Z,11.39
2022-08-05T08:57:11.615Z,11.40
2022-08-05T08:58:04.849Z,11.41
2022-08-05T08:59:09.769Z,11.43
2022-08-05T09:00:06.009Z,11.44
2022-08-05T09:01:04.710Z,11.46
2022-08-05T09:02:08.612Z,11.47
2022-08-05T09:03:06.928Z,11.48
2022-08-05T09:04:04.556Z,11.49
2022-08-05T09:06:09.180Z,11.50
2022-08-05T09:07:10.642Z,11.51
2022-08-05T09:09:04.778Z,11.52
2022-08-05T09:10:06.442Z,11.53
2022-08-05T09:11:04.453Z,11.54
2022-08-05T09:13:05.173Z,11.55
2022-08-05T09:15:06.522Z,11.54
2022-08-05T09:16:08.383Z,11.55
2022-08-05T09:17:09.502Z,11.54
2022-08-05T09:19:06.797Z,11.53
2022-08-05T09:25:13.522Z,11.51
2022-08-05T09:27:09.902Z,11.49
2022-08-05T09:28:15.608Z,11.47
2022-08-05T09:29:07.351Z,11.45
2022-08-05T09:30:07.046Z,11.41
2022-08-05T09:31:22.890Z,11.38
2022-08-05T09:32:42.090Z,11.34
2022-08-05T09:33:04.930Z,11.30
2022-08-05T09:34:06.933Z,11.26
2022-08-05T09:35:12.870Z,11.23
2022-08-05T09:36:11.594Z,11.19
2022-08-05T09:37:15.233Z,11.16
2022-08-05T09:38:12.148Z,11.13
2022-08-05T09:39:16.776Z,11.11
2022-08-05T09:40:05.397Z,11.09
2022-08-05T09:41:06.209Z,11.07
2022-08-05T09:42:07.907Z,11.05
2022-08-05T09:43:08.580Z,11.03
2022-08-05T09:44:04.519Z,11.01
2022-08-05T09:45:17.992Z,11.00
2022-08-05T09:46:08.822Z,10.98
2022-08-05T09:47:15.612Z,10.96
2022-08-05T09:48:22.350Z,10.95
2022-08-05T09:49:19.199Z,10.94
2022-08-05T09:50:05.527Z,10.93
2022-08-05T09:51:15.371Z,10.92
2022-08-05T09:52:19.499Z,10.91
2022-08-05T09:53:04.375Z,10.90
2022-08-05T09:54:07.647Z,10.88
2022-08-05T09:55:55.100Z,10.86
2022-08-05T09:56:13.304Z,10.84
2022-08-05T09:57:04.543Z,10.82
2022-08-05T09:58:14.588Z,10.79
2022-08-05T09:59:05.802Z,10.76
2022-08-05T10:00:10.486Z,10.73
2022-08-05T10:01:15.015Z,10.70
2022-08-05T10:02:04.349Z,10.68
2022-08-05T10:03:11.162Z,10.65
2022-08-05T10:04:10.328Z,10.63
2022-08-05T10:05:08.563Z,10.60
2022-08-05T10:06:14.656Z,10.58
2022-08-05T10:07:19.640Z,10.54
2022-08-05T10:08:36.586Z,10.53
2022-08-05T10:09:27.967Z,10.51
2022-08-05T10:12:18.882Z,10.50
2022-08-05T10:13:09.726Z,10.51
2022-08-05T10:14:23.104Z,10.50
2022-08-05T10:19:09.110Z,10.51
2022-08-05T10:20:10.121Z,10.52
2022-08-05T10:22:04.404Z,10.54
2022-08-05T10:23:05.318Z,10.55
2022-08-05T10:24:10.936Z,10.57
2022-08-05T10:25:04.469Z,10.58
2022-08-05T10:26:07.371Z,10.59
2022-08-05T10:27:04.574Z,10.61
2022-08-05T10:28:13.192Z,10.62
2022-08-05T10:29:04.679Z,10.63
2022-08-05T10:32:47.177Z,10.62
2022-08-05T10:34:07.169Z,10.61
2022-08-05T10:35:04.583Z,10.60
2022-08-05T10:37:04.365Z,10.59
2022-08-05T10:38:05.715Z,10.58
2022-08-05T10:40:18.533Z,10.57
2022-08-05T10:42:18.368Z,10.56
2022-08-05T10:43:13.137Z,10.55
2022-08-05T10:44:09.923Z,10.54
2022-08-05T10:49:10.468Z,10.53
2022-08-05T10:53:04.429Z,10.52
2022-08-05T10:55:07.396Z,10.51
2022-08-05T10:56:21.215Z,10.49
2022-08-05T10:57:04.321Z,10.48
2022-08-05T10:58:15.616Z,10.47
2022-08-05T10:59:12.085Z,10.46
2022-08-05T11:04:06.575Z,10.47
2022-08-05T11:06:16.210Z,10.48
2022-08-05T11:09:32.463Z,10.49
2022-08-05T11:15:19.555Z,10.50
2022-08-05T11:18:16.880Z,10.49
2022-08-05T11:20:11.436Z,10.48
2022-08-05T11:21:11.230Z,10.47
2022-08-05T11:22:22.215Z,10.46
2022-08-05T11:26:04.252Z,10.47
2022-08-05T11:26:09.080Z,10.48
2022-08-05T11:30:05.389Z,10.47
2022-08-05T11:31:13.028Z,10.46
2022-08-05T11:32:22.249Z,10.44
2022-08-05T11:33:22.187Z,10.43
2022-08-05T11:35:04.421Z,10.42
2022-08-05T11:36:08.595Z,10.43
2022-08-05T11:38:14.231Z,10.44
2022-08-05T11:39:04.555Z,10.45
2022-08-05T11:42:05.325Z,10.46
2022-08-05T11:44:10.846Z,10.47
2022-08-05T11:45:14.538Z,10.48
2022-08-05T11:46:27.532Z,10.49
2022-08-05T11:49:06.307Z,10.48
2022-08-05T11:50:05.781Z,10.47
2022-08-05T11:51:04.329Z,10.46
2022-08-05T11:52:11.475Z,10.45
2022-08-05T11:54:04.401Z,10.43
2022-08-05T11:55:07.512Z,10.42
2022-08-05T11:56:04.628Z,10.40
2022-08-05T11:57:08.310Z,10.39
2022-08-05T11:58:09.203Z,10.38
2022-08-05T11:59:04.282Z,10.37
2022-08-05T12:00:05.416Z,10.34
2022-08-05T12:01:08.536Z,10.31
2022-08-05T12:02:23.747Z,10.28
2022-08-05T12:03:29.105Z,10.26
2022-08-05T12:04:04.581Z,10.24
2022-08-05T12:05:07.888Z,10.23
2022-08-05T12:06:10.044Z,10.21
2022-08-05T12:07:04.681Z,10.20
2022-08-05T12:08:09.902Z,10.19
2022-08-05T12:10:09.502Z,10.18
2022-08-05T12:12:05.552Z,10.17
2022-08-05T12:14:07.659Z,10.18
2022-08-05T12:17:36.143Z,10.17
2022-08-05T12:18:11.092Z,10.16
2022-08-05T12:24:07.401Z,10.17
2022-08-05T12:26:04.372Z,10.16
2022-08-05T12:27:09.492Z,10.15
2022-08-05T12:28:04.406Z,10.16
2022-08-05T12:31:05.065Z,10.17
2022-08-05T12:33:07.463Z,10.18
2022-08-05T12:36:08.061Z,10.19
2022-08-05T12:37:26.954Z,10.20
2022-08-05T12:38:06.210Z,10.21
2022-08-05T12:39:07.031Z,10.22
2022-08-05T12:40:11.170Z,10.23
2022-08-05T12:41:04.292Z,10.24
2022-08-05T12:45:09.665Z,10.25
2022-08-05T12:46:04.273Z,10.26
2022-08-05T12:48:27.570Z,10.27
2022-08-05T12:49:13.210Z,10.28
2022-08-05T12:54:16.515Z,10.26
2022-08-05T12:56:34.253Z,10.25
2022-08-05T12:57:09.185Z,10.23
2022-08-05T12:58:50.017Z,10.22
2022-08-05T12:59:14.607Z,10.21
2022-08-05T13:01:58.298Z,10.19
2022-08-05T13:02:04.443Z,10.20
2022-08-05T13:04:07.541Z,10.19
2022-08-05T13:05:07.790Z,10.18
2022-08-05T13:07:16.104Z,10.17
2022-08-05T13:09:09.752Z,10.16
2022-08-05T13:11:04.556Z,10.15
2022-08-05T13:12:07.527Z,10.14
2022-08-05T13:13:08.871Z,10.13
2022-08-05T13:14:07.671Z,10.12
2022-08-05T13:15:05.561Z,10.11
2022-08-05T13:16:04.340Z,10.09
2022-08-05T13:17:10.479Z,10.07
2022-08-05T13:18:04.269Z,10.04
2022-08-05T13:19:04.232Z,10.01
2022-08-05T13:20:11.493Z,9.97
2022-08-05T13:21:04.285Z,9.94
2022-08-05T13:22:04.409Z,9.93
2022-08-05T13:23:07.080Z,9.92
2022-08-05T13:28:05.305Z,9.91
2022-08-05T13:31:14.065Z,9.90
2022-08-05T13:34:22.288Z,9.89
2022-08-05T13:37:04.196Z,9.88
2022-08-05T13:38:04.930Z,9.87
2022-08-05T13:39:08.411Z,9.86
2022-08-05T13:40:15.038Z,9.85
2022-08-05T13:42:04.389Z,9.83
2022-08-05T13:44:04.865Z,9.82
2022-08-05T13:46:04.235Z,9.81
2022-08-05T13:47:08.985Z,9.79
2022-08-05T13:48:08.547Z,9.77
2022-08-05T13:49:04.532Z,9.76
2022-08-05T13:50:06.829Z,9.73
2022-08-05T13:51:08.547Z,9.70
2022-08-05T13:52:14.029Z,9.65
2022-08-05T13:53:04.252Z,9.61
2022-08-05T13:54:12.620Z,9.57
2022-08-05T13:55:07.279Z,9.55
2022-08-05T13:56:04.688Z,9.53
2022-08-05T13:57:05.591Z,9.51
2022-08-05T13:58:04.160Z,9.50
2022-08-05T13:59:06.000Z,9.48
2022-08-05T14:00:04.943Z,9.46
2022-08-05T14:01:04.229Z,9.43
2022-08-05T14:02:05.968Z,9.42
2022-08-05T14:03:04.246Z,9.40
2022-08-05T14:04:13.622Z,9.38
2022-08-05T14:05:15.193Z,9.37
2022-08-05T14:06:25.426Z,9.35
2022-08-05T14:07:26.303Z,9.33
2022-08-05T14:08:11.367Z,9.30
2022-08-05T14:09:08.269Z,9.28
2022-08-05T14:10:10.973Z,9.24
2022-08-05T14:11:19.954Z,9.20
2022-08-05T14:12:18.060Z,9.17
2022-08-05T14:13:04.364Z,9.14
2022-08-05T14:14:04.244Z,9.11
2022-08-05T14:17:05.700Z,9.12
2022-08-05T14:18:05.242Z,9.13
2022-08-05T14:19:04.769Z,9.15
2022-08-05T14:20:07.469Z,9.17
2022-08-05T14:21:24.064Z,9.18
2022-08-05T14:22:10.245Z,9.20
2022-08-05T14:23:04.229Z,9.21
2022-08-05T14:24:04.565Z,9.22
2022-08-05T14:25:21.792Z,9.24
2022-08-05T14:26:04.951Z,9.26
2022-08-05T14:27:17.829Z,9.27
2022-08-05T14:28:04.319Z,9.29
2022-08-05T14:29:04.691Z,9.30
2022-08-05T14:30:04.777Z,9.32
2022-08-05T14:31:04.275Z,9.33
2022-08-05T14:32:27.177Z,9.35
2022-08-05T14:33:04.999Z,9.37
2022-08-05T14:34:04.247Z,9.38
2022-08-05T14:35:04.967Z,9.39
2022-08-05T14:36:05.239Z,9.41
2022-08-05T14:37:05.088Z,9.42
2022-08-05T14:38:04.243Z,9.44
2022-08-05T14:39:06.079Z,9.46
2022-08-05T14:40:05.529Z,9.47
2022-08-05T14:41:06.884Z,9.48
2022-08-05T14:42:19.527Z,9.49
2022-08-05T14:43:04.459Z,9.48
2022-08-05T14:44:09.849Z,9.47
2022-08-05T14:49:07.979Z,9.48
2022-08-05T14:53:05.809Z,9.47
2022-08-05T14:55:04.492Z,9.46
2022-08-05T14:56:04.206Z,9.45
2022-08-05T14:59:04.229Z,9.44
2022-08-05T15:00:06.178Z,9.42
2022-08-05T15:01:04.498Z,9.41
2022-08-05T15:02:15.695Z,9.38
2022-08-05T15:03:06.160Z,9.36
2022-08-05T15:04:04.354Z,9.34
2022-08-05T15:05:13.250Z,9.32
2022-08-05T15:06:07.925Z,9.31
2022-08-05T15:07:04.139Z,9.29
2022-08-05T15:09:04.396Z,9.28
2022-08-05T15:11:03.961Z,9.27
2022-08-05T15:12:04.126Z,9.28
2022-08-05T15:13:05.398Z,9.26
2022-08-05T15:14:05.538Z,9.25
2022-08-05T15:15:03.953Z,9.22
2022-08-05T15:16:04.575Z,9.19
2022-08-05T15:17:04.885Z,9.17
2022-08-05T15:18:05.549Z,9.14
2022-08-05T15:19:03.802Z,9.12
2022-08-05T15:20:05.034Z,9.08
2022-08-05T15:21:07.332Z,9.04
2022-08-05T15:22:03.842Z,9.01
2022-08-05T15:23:08.838Z,8.97
2022-08-05T15:24:03.819Z,8.94
2022-08-05T15:25:13.826Z,8.91
2022-08-05T15:26:03.858Z,8.89
2022-08-05T15:27:04.011Z,8.87
2022-08-05T15:28:04.113Z,8.85
2022-08-05T15:29:03.968Z,8.84
2022-08-05T15:30:04.550Z,8.82
2022-08-05T15:31:03.823Z,8.81
2022-08-05T15:32:05.905Z,8.80
2022-08-05T15:33:04.665Z,8.79
2022-08-05T15:34:18.370Z,8.77
2022-08-05T15:35:10.827Z,8.76
2022-08-05T15:36:05.354Z,8.73
2022-08-05T15:37:06.851Z,8.70
2022-08-05T15:38:04.345Z,8.68
2022-08-05T15:40:40.943Z,8.64
2022-08-05T15:41:00.431Z,8.60
2022-08-05T15:41:22.171Z,8.55
2022-08-05T15:42:54.624Z,8.52
2022-08-05T15:43:12.540Z,8.51
2022-08-05T15:44:03.986Z,8.50
2022-08-05T15:45:06.056Z,8.49
2022-08-05T15:46:03.845Z,8.48
2022-08-05T15:48:04.492Z,8.46
2022-08-05T15:49:10.787Z,8.45
2022-08-05T15:51:05.864Z,8.44
2022-08-05T15:53:05.650Z,8.43
2022-08-05T15:54:03.854Z,8.42
2022-08-05T15:55:05.634Z,8.41
2022-08-05T15:56:07.105Z,8.38
2022-08-05T15:57:04.090Z,8.36
2022-08-05T15:58:03.911Z,8.35
2022-08-05T15:59:04.329Z,8.32
2022-08-05T16:00:05.982Z,8.30
2022-08-05T16:01:15.858Z,8.29
2022-08-05T16:02:03.853Z,8.28
2022-08-05T16:03:03.947Z,8.27
2022-08-05T16:05:05.294Z,8.26
2022-08-05T16:09:04.619Z,8.27
2022-08-05T16:11:04.197Z,8.28
2022-08-05T16:12:04.029Z,8.30
2022-08-05T16:13:03.787Z,8.32
2022-08-05T16:15:04.101Z,8.33
2022-08-05T16:18:04.132Z,8.32
2022-08-05T16:19:04.493Z,8.29
2022-08-05T16:20:12.082Z,8.27
2022-08-05T16:21:04.718Z,8.26
2022-08-05T16:22:04.343Z,8.25
2022-08-05T16:23:03.784Z,8.23
2022-08-05T16:24:03.856Z,8.20
2022-08-05T16:25:05.290Z,8.19
2022-08-05T16:28:06.505Z,8.18